createdAt,value
2022-12-11T00:00:53.443Z,14.8571
2022-12-11T00:01:53.525Z,15.4286
2022-12-11T00:02:53.570Z,15.4286
2022-12-11T00:03:53.543Z,15.1429
2022-12-11T00:04:53.583Z,15
2022-12-11T00:05:53.615Z,15.5
2022-12-11T00:06:53.645Z,16.1429
2022-12-11T00:07:53.718Z,15.7143
2022-12-11T00:08:53.723Z,15.8571
2022-12-11T00:09:53.745Z,15.5
2022-12-11T00:10:53.782Z,15.6429
2022-12-11T00:11:53.816Z,16
2022-12-11T00:12:53.849Z,15.6429
2022-12-11T00:13:53.874Z,16
2022-12-11T00:14:53.913Z,15.6429
2022-12-11T00:15:53.941Z,14.7143
2022-12-11T00:16:53.996Z,15.6429
2022-12-11T00:17:53.992Z,15.7143
2022-12-11T00:18:54.036Z,15.5
2022-12-11T00:19:54.066Z,15.8571
2022-12-11T00:20:54.105Z,15.6429
2022-12-11T00:21:54.130Z,15.7143
2022-12-11T00:22:54.167Z,16.6429
2022-12-11T00:23:54.202Z,15.8571
2022-12-11T00:24:54.235Z,15.2143
2022-12-11T00:25:54.279Z,16.1429
2022-12-11T00:26:54.304Z,16.7143
2022-12-11T00:27:54.337Z,16.4286
2022-12-11T00:28:54.365Z,16.2143
2022-12-11T00:29:54.389Z,15.5
2022-12-11T00:30:54.422Z,15.8571
2022-12-11T00:31:54.509Z,15.6429
2022-12-11T00:32:54.494Z,15.4286
2022-12-11T00:33:54.514Z,15.8571
2022-12-11T00:34:54.553Z,16.6429
2022-12-11T00:35:54.588Z,15
2022-12-11T00:36:54.628Z,16.2143
2022-12-11T00:37:54.653Z,16.3571
2022-12-11T00:38:54.693Z,17.2143
2022-12-11T00:39:54.715Z,16.1429
2022-12-11T00:40:54.745Z,16.3571
2022-12-11T00:41:54.772Z,16.5
2022-12-11T00:42:54.811Z,16.9286
2022-12-11T00:43:54.845Z,17
2022-12-11T00:44:54.872Z,15.3571
2022-12-11T00:45:54.934Z,16.4286
2022-12-11T00:46:54.943Z,16.1429
2022-12-11T00:47:54.983Z,17.1429
2022-12-11T00:48:55.021Z,16.2143
2022-12-11T00:49:55.049Z,16.8571
2022-12-11T00:50:55.087Z,16.5
2022-12-11T00:51:55.121Z,15.8571
2022-12-11T00:52:55.165Z,15.7143
2022-12-11T00:53:55.194Z,15.9286
2022-12-11T00:54:55.230Z,15.7143
2022-12-11T00:55:55.251Z,15.3571
2022-12-11T00:56:55.286Z,16.2143
2022-12-11T00:57:55.316Z,16.3571
2022-12-11T00:58:55.351Z,16.2143
2022-12-11T00:59:55.387Z,16.3571
2022-12-11T01:00:55.484Z,15.7143
2022-12-11T01:01:55.452Z,15.5
2022-12-11T01:02:55.521Z,16.2143
2022-12-11T01:03:55.508Z,16
2022-12-11T01:04:55.544Z,16.3571
2022-12-11T01:05:55.578Z,15.6429
2022-12-11T01:06:55.605Z,16.9286
2022-12-11T01:07:55.727Z,16.8571
2022-12-11T01:08:55.681Z,16.1429
2022-12-11T01:09:55.710Z,16.9286
2022-12-11T01:10:55.801Z,15.1429
2022-12-11T01:11:55.766Z,16.3571
2022-12-11T01:12:55.802Z,16.6429
2022-12-11T01:13:55.829Z,15.7143
2022-12-11T01:14:55.858Z,15.9286
2022-12-11T01:15:55.895Z,15.9286
2022-12-11T01:16:55.960Z,16.4286
2022-12-11T01:17:55.954Z,16.3571
2022-12-11T01:18:55.975Z,15.7143
2022-12-11T01:19:56.012Z,15.7143
2022-12-11T01:20:56.045Z,16.5
2022-12-11T01:21:56.075Z,15.9286
2022-12-11T01:22:56.119Z,16.3571
2022-12-11T01:23:56.136Z,16.3571
2022-12-11T01:24:56.188Z,15.5
2022-12-11T01:25:56.210Z,15.8571
2022-12-11T01:26:56.240Z,16.6429
2022-12-11T01:27:56.263Z,16.7143
2022-12-11T01:28:56.300Z,15.3571
2022-12-11T01:29:56.326Z,16.6429
2022-12-11T01:30:56.412Z,15.8571
2022-12-11T01:31:56.394Z,15.9286
2022-12-11T01:32:56.424Z,16
2022-12-11T01:33:56.471Z,16.7143
2022-12-11T01:34:56.491Z,15.8571
2022-12-11T01:35:56.505Z,16.6429
2022-12-11T01:36:56.539Z,15.7143
2022-12-11T01:37:56.578Z,16.2143
2022-12-11T01:38:56.597Z,15.5
2022-12-11T01:39:56.637Z,15.7143
2022-12-11T01:40:56.662Z,16.1429
2022-12-11T01:41:56.700Z,15.7143
2022-12-11T01:42:56.727Z,17.2143
2022-12-11T01:43:56.764Z,15.9286
2022-12-11T01:44:56.798Z,16.8571
2022-12-11T01:45:56.869Z,16.5
2022-12-11T01:46:56.867Z,17
2022-12-11T01:47:56.894Z,15.7143
2022-12-11T01:48:56.929Z,16
2022-12-11T01:49:56.953Z,16.4286
2022-12-11T01:50:56.987Z,16.2143
2022-12-11T01:51:57.022Z,16
2022-12-11T01:52:57.057Z,16.5
2022-12-11T01:53:57.086Z,15.9286
2022-12-11T01:54:57.104Z,15.3571
2022-12-11T01:55:57.144Z,15.7143
2022-12-11T01:56:57.172Z,16.9286
2022-12-11T01:57:57.202Z,16.2143
2022-12-11T01:58:57.239Z,16.5
2022-12-11T01:59:57.266Z,16.4286
2022-12-11T02:00:57.352Z,16.3571
2022-12-11T02:01:57.313Z,16.1429
2022-12-11T02:02:57.348Z,16.5
2022-12-11T02:03:57.383Z,16.1429
2022-12-11T02:04:57.414Z,15.9286
2022-12-11T02:05:57.443Z,15.8571
2022-12-11T02:06:57.472Z,16.2143
2022-12-11T02:07:57.592Z,15.7143
2022-12-11T02:08:57.528Z,16.3571
2022-12-11T02:09:57.571Z,16.1429
2022-12-11T02:10:57.605Z,16.4286
2022-12-11T02:11:57.634Z,16.4286
2022-12-11T02:12:57.680Z,16.5
2022-12-11T02:13:57.702Z,16.6429
2022-12-11T02:14:57.740Z,16.7143
2022-12-11T02:15:57.821Z,15.1429
2022-12-11T02:16:57.801Z,15.9286
2022-12-11T02:17:57.829Z,15.3571
2022-12-11T02:18:57.860Z,15.9286
2022-12-11T02:19:57.892Z,16.3571
2022-12-11T02:20:57.919Z,15.6429
2022-12-11T02:21:57.955Z,15.7143
2022-12-11T02:22:57.985Z,16.3571
2022-12-11T02:23:58.010Z,16.4286
2022-12-11T02:24:58.049Z,16
2022-12-11T02:25:58.073Z,16.1429
2022-12-11T02:26:58.100Z,16.5
2022-12-11T02:27:58.156Z,15
2022-12-11T02:28:58.178Z,16
2022-12-11T02:29:58.206Z,15.1429
2022-12-11T02:30:58.357Z,16.3571
2022-12-11T02:31:58.271Z,15.6429
2022-12-11T02:32:58.294Z,15.7143
2022-12-11T02:33:58.336Z,15.8571
2022-12-11T02:34:58.363Z,15.8571
2022-12-11T02:35:58.397Z,14.9286
2022-12-11T02:36:58.428Z,14.5
2022-12-11T02:37:58.461Z,15.8571
2022-12-11T02:38:58.491Z,15.3571
2022-12-11T02:39:58.520Z,14.7143
2022-12-11T02:40:58.571Z,15
2022-12-11T02:41:58.592Z,15.8571
2022-12-11T02:42:58.632Z,14.3571
2022-12-11T02:43:58.663Z,14.3571
2022-12-11T02:44:58.694Z,15
2022-12-11T02:45:58.781Z,14.5
2022-12-11T02:46:58.759Z,15.5
2022-12-11T02:47:58.783Z,14.8571
2022-12-11T02:48:58.812Z,15.2143
2022-12-11T02:49:58.844Z,14.4286
2022-12-11T02:50:58.877Z,14.6429
2022-12-11T02:51:58.910Z,14.4286
2022-12-11T02:52:58.946Z,14.3571
2022-12-11T02:53:58.968Z,14.2143
2022-12-11T02:54:59.013Z,14.9286
2022-12-11T02:55:59.046Z,15
2022-12-11T02:56:59.080Z,14.5
2022-12-11T02:57:59.116Z,14.8571
2022-12-11T02:58:59.138Z,13.9286
2022-12-11T02:59:59.171Z,14.1429
2022-12-11T03:00:59.278Z,15.3571
2022-12-11T03:01:59.294Z,15.1429
2022-12-11T03:02:59.277Z,15.2143
2022-12-11T03:03:59.315Z,15.8571
2022-12-11T03:04:59.353Z,14.4286
2022-12-11T03:05:59.386Z,15.7143
2022-12-11T03:06:59.410Z,15.7143
2022-12-11T03:07:59.486Z,14.9286
2022-12-11T03:08:59.470Z,14.9286
2022-12-11T03:09:59.508Z,14.6429
2022-12-11T03:10:59.529Z,14.7143
2022-12-11T03:11:59.557Z,15
2022-12-11T03:12:59.585Z,14
2022-12-11T03:13:59.613Z,14.6429
2022-12-11T03:14:59.648Z,14.7143
2022-12-11T03:15:59.718Z,14.4286
2022-12-11T03:16:59.705Z,14.3571
2022-12-11T03:17:59.747Z,15.3571
2022-12-11T03:18:59.777Z,15.7143
2022-12-11T03:19:59.807Z,14.3571
2022-12-11T03:20:59.837Z,13.9286
2022-12-11T03:21:59.875Z,15
2022-12-11T03:22:59.900Z,14.9286
2022-12-11T03:23:59.936Z,14.7143
2022-12-11T03:24:59.962Z,14.8571
2022-12-11T03:25:59.998Z,14.7143
2022-12-11T03:27:01.070Z,14.9286
2022-12-11T03:28:00.060Z,13.7143
2022-12-11T03:29:00.091Z,13.9286
2022-12-11T03:30:00.167Z,13.9286
2022-12-11T03:31:00.244Z,14.2143
2022-12-11T03:32:00.163Z,14.4286
2022-12-11T03:33:00.177Z,14.4286
2022-12-11T03:34:00.213Z,14.3571
2022-12-11T03:35:00.251Z,14.1429
2022-12-11T03:36:00.266Z,14.5
2022-12-11T03:37:00.297Z,13.6429
2022-12-11T03:38:00.331Z,13.7143
2022-12-11T03:39:00.372Z,13.9286
2022-12-11T03:40:00.401Z,13.4286
2022-12-11T03:41:00.426Z,13.7143
2022-12-11T03:42:00.457Z,14.3571
2022-12-11T03:43:00.489Z,13.6429
2022-12-11T03:44:00.518Z,13.7143
2022-12-11T03:45:00.553Z,13
2022-12-11T03:46:00.623Z,13.7143
2022-12-11T03:47:00.627Z,13.9286
2022-12-11T03:48:00.654Z,14.3571
2022-12-11T03:49:00.690Z,14
2022-12-11T03:50:00.711Z,14.5
2022-12-11T03:51:00.750Z,13.6429
2022-12-11T03:52:00.784Z,14
2022-12-11T03:53:00.820Z,13.3571
2022-12-11T03:54:00.847Z,14.1429
2022-12-11T03:55:00.873Z,14.1429
2022-12-11T03:56:00.912Z,14.1429
2022-12-11T03:57:00.938Z,13
2022-12-11T03:58:00.970Z,13.8571
2022-12-11T03:59:01.005Z,13.9286
2022-12-11T04:00:01.031Z,15.1429
2022-12-11T04:01:01.067Z,13.6429
2022-12-11T04:02:01.149Z,14.5
2022-12-11T04:03:01.125Z,14.4286
2022-12-11T04:04:01.234Z,14.1429
2022-12-11T04:05:01.198Z,13.6429
2022-12-11T04:06:01.230Z,14.6429
2022-12-11T04:07:01.263Z,14.4286
2022-12-11T04:08:01.321Z,13.9286
2022-12-11T04:09:01.315Z,14
2022-12-11T04:10:01.352Z,14.7143
2022-12-11T04:11:01.382Z,15
2022-12-11T04:12:01.429Z,14.2143
2022-12-11T04:13:01.439Z,13.8571
2022-12-11T04:14:01.481Z,14.7143
2022-12-11T04:15:01.505Z,14.7143
2022-12-11T04:16:01.555Z,14.1429
2022-12-11T04:17:01.571Z,13.7143
2022-12-11T04:18:01.604Z,14.1429
2022-12-11T04:19:01.634Z,14.2143
2022-12-11T04:20:01.660Z,14.4286
2022-12-11T04:21:01.691Z,14.7143
2022-12-11T04:22:01.731Z,15.1429
2022-12-11T04:23:01.766Z,14.2143
2022-12-11T04:24:01.807Z,13.3571
2022-12-11T04:25:01.837Z,14.4286
2022-12-11T04:26:01.868Z,14.7143
2022-12-11T04:27:01.897Z,14.1429
2022-12-11T04:28:01.930Z,15.3571
2022-12-11T04:29:01.965Z,14.8571
2022-12-11T04:30:02.003Z,14.6429
2022-12-11T04:31:02.079Z,14.9286
2022-12-11T04:32:02.063Z,14.1429
2022-12-11T04:33:02.078Z,14.1429
2022-12-11T04:34:02.122Z,13.9286
2022-12-11T04:35:02.147Z,13.9286
2022-12-11T04:36:02.182Z,14.7143
2022-12-11T04:37:02.212Z,14.2143
2022-12-11T04:38:02.239Z,14.5
2022-12-11T04:39:02.276Z,14.3571
2022-12-11T04:40:02.313Z,13.9286
2022-12-11T04:41:02.329Z,13.9286
2022-12-11T04:42:02.371Z,14.7143
2022-12-11T04:43:02.400Z,14.5
2022-12-11T04:44:02.429Z,14.8571
2022-12-11T04:45:02.463Z,14.3571
2022-12-11T04:46:02.524Z,14.2143
2022-12-11T04:47:02.532Z,14.8571
2022-12-11T04:48:02.562Z,14.2143
2022-12-11T04:49:02.607Z,14.6429
2022-12-11T04:50:02.635Z,14.8571
2022-12-11T04:51:02.671Z,14.3571
2022-12-11T04:52:02.709Z,13.8571
2022-12-11T04:53:02.737Z,14.5
2022-12-11T04:54:02.770Z,14.8571
2022-12-11T04:55:02.799Z,14.2143
2022-12-11T04:56:02.831Z,14.6429
2022-12-11T04:57:02.856Z,14.2143
2022-12-11T04:58:02.890Z,13.9286
2022-12-11T04:59:02.930Z,15
2022-12-11T05:00:02.963Z,14.7143
2022-12-11T05:01:02.979Z,15.2143
2022-12-11T05:02:03.047Z,14.8571
2022-12-11T05:03:03.114Z,15
2022-12-11T05:04:03.071Z,13.9286
2022-12-11T05:05:03.097Z,14.7143
2022-12-11T05:06:03.133Z,15.2143
2022-12-11T05:07:03.176Z,15.2143
2022-12-11T05:08:03.255Z,15.2143
2022-12-11T05:09:03.231Z,14.5
2022-12-11T05:10:03.269Z,14.9286
2022-12-11T05:11:03.297Z,13.8571
2022-12-11T05:12:03.327Z,14.8571
2022-12-11T05:13:03.359Z,14.2143
2022-12-11T05:14:03.392Z,14.8571
2022-12-11T05:15:03.427Z,14.8571
2022-12-11T05:16:03.510Z,14.8571
2022-12-11T05:17:03.486Z,14.6429
2022-12-11T05:18:03.514Z,15.6429
2022-12-11T05:19:03.539Z,15.4286
2022-12-11T05:20:03.572Z,14.4286
2022-12-11T05:21:03.606Z,15.9286
2022-12-11T05:22:03.645Z,15
2022-12-11T05:23:03.668Z,14.6429
2022-12-11T05:24:03.698Z,15
2022-12-11T05:25:03.723Z,14.3571
2022-12-11T05:26:03.757Z,14
2022-12-11T05:27:03.793Z,15
2022-12-11T05:28:03.819Z,15.1429
2022-12-11T05:29:03.856Z,15.9286
2022-12-11T05:30:03.875Z,15.6429
2022-12-11T05:31:03.998Z,15.1429
2022-12-11T05:32:03.940Z,14.8571
2022-12-11T05:33:03.967Z,14.9286
2022-12-11T05:34:04.001Z,15.3571
2022-12-11T05:35:04.033Z,14.1429
2022-12-11T05:36:04.070Z,14.9286
2022-12-11T05:37:04.104Z,14.9286
2022-12-11T05:38:04.151Z,15
2022-12-11T05:39:04.188Z,14.3571
2022-12-11T05:40:04.218Z,15.9286
2022-12-11T05:41:04.243Z,15.9286
2022-12-11T05:42:04.273Z,16.2143
2022-12-11T05:43:04.289Z,15.4286
2022-12-11T05:44:04.330Z,15.2143
2022-12-11T05:45:04.369Z,15.1429
2022-12-11T05:46:04.394Z,14.7143
2022-12-11T05:47:04.431Z,14.8571
2022-12-11T05:48:04.461Z,15.3571
2022-12-11T05:49:04.503Z,14.9286
2022-12-11T05:50:04.538Z,15.8571
2022-12-11T05:51:04.573Z,15.3571
2022-12-11T05:52:04.606Z,15.4286
2022-12-11T05:53:04.633Z,15
2022-12-11T05:54:04.659Z,16.4286
2022-12-11T05:55:04.692Z,15.2143
2022-12-11T05:56:04.739Z,15.5
2022-12-11T05:57:04.761Z,15.3571
2022-12-11T05:58:04.794Z,15.3571
2022-12-11T05:59:04.827Z,15.7143
2022-12-11T06:00:04.854Z,25.3571
2022-12-11T06:01:04.885Z,21
2022-12-11T06:02:04.985Z,22.2143
2022-12-11T06:03:05.059Z,23.1429
2022-12-11T06:04:04.971Z,20
2022-12-11T06:05:05.005Z,20.3571
2022-12-11T06:06:05.040Z,19.5
2022-12-11T06:07:05.075Z,21.1429
2022-12-11T06:08:05.171Z,19.1429
2022-12-11T06:09:05.131Z,18.8571
2022-12-11T06:10:05.153Z,20.4286
2022-12-11T06:11:05.178Z,22.4286
2022-12-11T06:12:05.213Z,22.8571
2022-12-11T06:13:05.235Z,24.4286
2022-12-11T06:14:05.273Z,22.4286
2022-12-11T06:15:05.304Z,21.3571
2022-12-11T06:16:05.432Z,20.8571
2022-12-11T06:17:05.360Z,24.1429
2022-12-11T06:18:05.401Z,21.3571
2022-12-11T06:19:05.425Z,18.1429
2022-12-11T06:20:05.441Z,17.3571
2022-12-11T06:21:05.464Z,19.2143
2022-12-11T06:22:05.501Z,19.9286
2022-12-11T06:23:05.523Z,23.3571
2022-12-11T06:24:05.568Z,21.5
2022-12-11T06:25:05.589Z,23.9286
2022-12-11T06:26:05.628Z,22.7143
2022-12-11T06:27:05.664Z,20.7143
2022-12-11T06:28:05.680Z,18.1429
2022-12-11T06:29:09.241Z,15.7143
2022-12-11T06:30:05.742Z,16.6429
2022-12-11T06:31:05.779Z,17.4286
2022-12-11T06:32:05.864Z,17.3571
2022-12-11T06:33:05.838Z,16.8571
2022-12-11T06:34:05.874Z,16.5
2022-12-11T06:35:05.909Z,16.5
2022-12-11T06:36:05.937Z,17.3571
2022-12-11T06:37:05.964Z,16.2143
2022-12-11T06:38:06.000Z,15.5
2022-12-11T06:39:06.028Z,15.9286
2022-12-11T06:40:06.063Z,17.4286
2022-12-11T06:41:06.098Z,16.2143
2022-12-11T06:42:06.125Z,16.6429
2022-12-11T06:43:06.162Z,16.5
2022-12-11T06:44:06.184Z,16.5
2022-12-11T06:45:06.230Z,16
2022-12-11T06:46:06.343Z,16.3571
2022-12-11T06:47:06.287Z,16.6429
2022-12-11T06:48:06.326Z,15.8571
2022-12-11T06:49:06.364Z,15.3571
2022-12-11T06:50:06.385Z,16
2022-12-11T06:51:06.418Z,15.9286
2022-12-11T06:52:06.443Z,15.4286
2022-12-11T06:53:06.474Z,16.4286
2022-12-11T06:54:06.505Z,15.3571
2022-12-11T06:55:06.538Z,16.1429
2022-12-11T06:56:06.556Z,14.9286
2022-12-11T06:57:06.586Z,16.6429
2022-12-11T06:58:06.615Z,16.3571
2022-12-11T06:59:07.625Z,16.2143
2022-12-11T07:00:06.680Z,15.9286
2022-12-11T07:01:06.734Z,15.9286
2022-12-11T07:02:06.793Z,15.7143
2022-12-11T07:03:06.775Z,16.2143
2022-12-11T07:04:06.808Z,16.2143
2022-12-11T07:05:06.836Z,15.9286
2022-12-11T07:06:06.872Z,16.6429
2022-12-11T07:07:06.898Z,15.4286
2022-12-11T07:08:06.964Z,16
2022-12-11T07:09:06.983Z,15.4286
2022-12-11T07:10:08.531Z,16
2022-12-11T07:11:07.018Z,16.5
2022-12-11T07:12:07.054Z,15.9286
2022-12-11T07:13:07.083Z,15.7143
2022-12-11T07:14:07.121Z,15.2143
2022-12-11T07:15:07.163Z,15.8571
2022-12-11T07:16:07.200Z,15.2143
2022-12-11T07:17:07.215Z,15.9286
2022-12-11T07:18:07.257Z,15.4286
2022-12-11T07:19:07.280Z,15.2143
2022-12-11T07:20:07.302Z,15.4286
2022-12-11T07:21:07.338Z,16
2022-12-11T07:22:07.371Z,16
2022-12-11T07:23:07.400Z,15.6429
2022-12-11T07:24:07.429Z,15.2143
2022-12-11T07:25:07.455Z,15.9286
2022-12-11T07:26:07.473Z,15.4286
2022-12-11T07:27:07.499Z,15.1429
2022-12-11T07:28:09.158Z,16.2143
2022-12-11T07:29:07.553Z,15.4286
2022-12-11T07:30:07.576Z,16.1429
2022-12-11T07:31:07.605Z,16.7143
2022-12-11T07:32:07.745Z,15.5
2022-12-11T07:33:07.676Z,15.1429
2022-12-11T07:34:07.718Z,15.9286
2022-12-11T07:35:07.743Z,15.1429
2022-12-11T07:36:07.779Z,15.7143
2022-12-11T07:37:07.802Z,16.3571
2022-12-11T07:38:07.826Z,16
2022-12-11T07:39:07.865Z,14.1429
2022-12-11T07:40:07.898Z,14.5
2022-12-11T07:41:07.923Z,14.2143
2022-12-11T07:42:07.961Z,14.2143
2022-12-11T07:43:07.992Z,14.3571
2022-12-11T07:44:08.021Z,14.2143
2022-12-11T07:45:08.495Z,14.3571
2022-12-11T07:46:08.123Z,13.4286
2022-12-11T07:47:08.117Z,13.8571
2022-12-11T07:48:08.155Z,13.4286
2022-12-11T07:49:08.187Z,13.2143
2022-12-11T07:50:08.227Z,13.2143
2022-12-11T07:51:08.261Z,13.5
2022-12-11T07:52:08.281Z,13.2143
2022-12-11T07:53:08.315Z,12.6429
2022-12-11T07:54:08.333Z,13.3571
2022-12-11T07:55:08.528Z,12
2022-12-11T07:56:08.403Z,12.8571
2022-12-11T07:57:13.911Z,12.4286
2022-12-11T07:58:08.471Z,13
2022-12-11T07:59:08.505Z,12.4286
2022-12-11T08:00:08.533Z,13.3571
2022-12-11T08:01:08.608Z,12.5
2022-12-11T08:02:08.661Z,12.5
2022-12-11T08:03:08.645Z,13.3571
2022-12-11T08:04:08.670Z,13
2022-12-11T08:05:08.953Z,12.5
2022-12-11T08:06:08.719Z,12.6429
2022-12-11T08:07:08.749Z,12.3571
2022-12-11T08:08:08.810Z,12.9286
2022-12-11T08:09:08.811Z,12.5
2022-12-11T08:10:08.842Z,12.6429
2022-12-11T08:11:08.882Z,12.2143
2022-12-11T08:12:08.918Z,12.8571
2022-12-11T08:13:08.954Z,12.3571
2022-12-11T08:14:08.976Z,12.8571
2022-12-11T08:15:09.287Z,12.9286
2022-12-11T08:16:09.038Z,13.1429
2022-12-11T08:17:09.069Z,12.1429
2022-12-11T08:18:09.104Z,12.5
2022-12-11T08:19:09.136Z,11.8571
2022-12-11T08:20:09.169Z,12.3571
2022-12-11T08:21:09.194Z,13
2022-12-11T08:22:09.225Z,12.2143
2022-12-11T08:23:09.247Z,13.1429
2022-12-11T08:24:09.273Z,12
2022-12-11T08:25:09.660Z,11.8571
2022-12-11T08:26:09.325Z,12.5
2022-12-11T08:27:09.354Z,12.2143
2022-12-11T08:28:09.392Z,12.5
2022-12-11T08:29:09.434Z,12.4286
2022-12-11T08:30:09.460Z,12.7143
2022-12-11T08:31:09.553Z,12.8571
2022-12-11T08:32:12.433Z,12.7143
2022-12-11T08:33:09.550Z,13
2022-12-11T08:34:09.572Z,12.2143
2022-12-11T08:35:09.857Z,12.2143
2022-12-11T08:36:09.630Z,12.5
2022-12-11T08:37:09.665Z,13
2022-12-11T08:38:09.692Z,12.6429
2022-12-11T08:39:09.720Z,12.4286
2022-12-11T08:40:09.747Z,12.4286
2022-12-11T08:41:09.794Z,13.5
2022-12-11T08:42:09.811Z,12.7143
2022-12-11T08:43:09.843Z,12.7143
2022-12-11T08:44:15.797Z,12.4286
2022-12-11T08:45:10.226Z,12.6429
2022-12-11T08:46:09.977Z,12.7143
2022-12-11T08:47:09.956Z,12.3571
2022-12-11T08:48:09.998Z,12
2022-12-11T08:49:10.021Z,11.9286
2022-12-11T08:50:10.054Z,12.8571
2022-12-11T08:51:10.080Z,12.3571
2022-12-11T08:52:10.117Z,12.1429
2022-12-11T08:53:10.152Z,11.5
2022-12-11T08:54:10.183Z,11.3571
2022-12-11T08:55:10.604Z,12.2143
2022-12-11T08:56:10.239Z,11.5
2022-12-11T08:57:10.273Z,11.1429
2022-12-11T08:58:10.313Z,11.2143
2022-12-11T08:59:10.341Z,12
2022-12-11T09:00:10.366Z,11.9286
2022-12-11T09:01:10.574Z,12.3571
2022-12-11T09:02:10.505Z,10.9286
2022-12-11T09:03:12.941Z,11.5
2022-12-11T09:04:10.479Z,11.7143
2022-12-11T09:05:10.857Z,11.4286
2022-12-11T09:06:10.534Z,10.7143
2022-12-11T09:07:10.569Z,11.5
2022-12-11T09:08:10.619Z,11.1429
2022-12-11T09:09:10.624Z,11
2022-12-11T09:10:10.658Z,11.4286
2022-12-11T09:11:10.696Z,12.2143
2022-12-11T09:12:10.721Z,12
2022-12-11T09:13:10.738Z,11.8571
2022-12-11T09:14:10.764Z,11.4286
2022-12-11T09:15:10.990Z,10.7143
2022-12-11T09:16:10.869Z,11.1429
2022-12-11T09:17:10.856Z,11.1429
2022-12-11T09:18:10.886Z,11.3571
2022-12-11T09:19:10.913Z,11
2022-12-11T09:20:10.942Z,11.3571
2022-12-11T09:21:10.962Z,11.8571
2022-12-11T09:22:10.999Z,11.4286
2022-12-11T09:23:11.022Z,11.3571
2022-12-11T09:24:11.060Z,10.8571
2022-12-11T09:25:11.388Z,11.7143
2022-12-11T09:26:11.151Z,11.9286
2022-12-11T09:27:11.134Z,13.9286
2022-12-11T09:28:11.164Z,11.9286
2022-12-11T09:29:11.192Z,11.5
2022-12-11T09:30:11.232Z,13.6429
2022-12-11T09:31:11.330Z,13.9286
2022-12-11T09:32:11.297Z,14.1429
2022-12-11T09:33:11.330Z,16.1429
2022-12-11T09:34:11.364Z,17.9286
2022-12-11T09:35:11.739Z,14
2022-12-11T09:36:11.410Z,13
2022-12-11T09:37:11.444Z,11.7143
2022-12-11T09:38:11.475Z,11.5
2022-12-11T09:39:11.509Z,13
2022-12-11T09:40:11.533Z,17
2022-12-11T09:41:11.561Z,26.2143
2022-12-11T09:42:11.591Z,23.8571
2022-12-11T09:43:11.625Z,19.8571
2022-12-11T09:44:11.662Z,22
2022-12-11T09:45:12.020Z,24.1429
2022-12-11T09:46:11.782Z,22.4286
2022-12-11T09:47:11.745Z,22.6429
2022-12-11T09:48:11.791Z,23.6429
2022-12-11T09:49:11.813Z,24.6429
2022-12-11T09:50:11.853Z,16
2022-12-11T09:51:11.879Z,14.5
2022-12-11T09:52:11.901Z,23.1429
2022-12-11T09:53:11.939Z,24.8571
2022-12-11T09:54:11.977Z,29.7143
2022-12-11T09:55:12.294Z,24.9286
2022-12-11T09:56:12.042Z,22
2022-12-11T09:57:12.072Z,28.2143
2022-12-11T09:58:12.105Z,18.7143
2022-12-11T09:59:12.138Z,16.7143
2022-12-11T10:00:12.172Z,17.9286
2022-12-11T10:01:12.253Z,20.7143
2022-12-11T10:02:12.264Z,26.1429
2022-12-11T10:03:12.261Z,36.2143
2022-12-11T10:04:12.301Z,33.1429
2022-12-11T10:05:12.672Z,33.8571
2022-12-11T10:06:12.370Z,38
2022-12-11T10:07:12.403Z,32.9286
2022-12-11T10:08:12.471Z,28.7143
2022-12-11T10:09:12.474Z,32.4286
2022-12-11T10:10:12.504Z,31.1429
2022-12-11T10:11:12.534Z,30.3571
2022-12-11T10:12:12.566Z,38.6429
2022-12-11T10:13:12.609Z,37
2022-12-11T10:14:12.624Z,23.3571
2022-12-11T10:15:13.102Z,16.9286
2022-12-11T10:16:12.782Z,25.4286
2022-12-11T10:17:12.730Z,27.4286
2022-12-11T10:18:12.767Z,17.5
2022-12-11T10:19:12.796Z,13.9286
2022-12-11T10:20:12.831Z,12
2022-12-11T10:21:12.858Z,11.6429
2022-12-11T10:22:12.886Z,11.7143
2022-12-11T10:23:12.919Z,11.8571
2022-12-11T10:24:12.951Z,11.5
2022-12-11T10:25:13.069Z,12.4286
2022-12-11T10:26:13.007Z,11.4286
2022-12-11T10:27:13.028Z,10.7143
2022-12-11T10:28:13.064Z,11.5
2022-12-11T10:29:13.100Z,13.4286
2022-12-11T10:30:13.137Z,12.1429
2022-12-11T10:31:13.317Z,12.6429
2022-12-11T10:32:13.188Z,11.1429
2022-12-11T10:33:13.210Z,11.7143
2022-12-11T10:34:13.254Z,25.7143
2022-12-11T10:35:13.543Z,21.2143
2022-12-11T10:36:13.308Z,29.1429
2022-12-11T10:37:13.333Z,26.1429
2022-12-11T10:38:13.361Z,31.3571
2022-12-11T10:39:13.397Z,32.7143
2022-12-11T10:40:13.420Z,25.8571
2022-12-11T10:41:13.453Z,29.5
2022-12-11T10:42:13.492Z,27.8571
2022-12-11T10:43:13.533Z,28.2143
2022-12-11T10:44:13.563Z,20.9286
2022-12-11T10:45:13.747Z,12.7143
2022-12-11T10:46:13.671Z,11.9286
2022-12-11T10:47:13.649Z,19.1429
2022-12-11T10:48:13.675Z,28.7143
2022-12-11T10:49:13.715Z,21.7143
2022-12-11T10:50:13.743Z,15.7143
2022-12-11T10:51:13.769Z,18
2022-12-11T10:52:13.814Z,17.1429
2022-12-11T10:53:13.835Z,19.9286
2022-12-11T10:54:13.860Z,31.8571
2022-12-11T10:55:13.938Z,32.2143
2022-12-11T10:56:13.912Z,25.7143
2022-12-11T10:57:13.931Z,25.5
2022-12-11T10:58:13.975Z,32.4286
2022-12-11T10:59:13.986Z,39.8571
2022-12-11T11:00:14.012Z,44.9286
2022-12-11T11:01:14.133Z,42.1429
2022-12-11T11:02:14.072Z,27.5
2022-12-11T11:03:14.100Z,17
2022-12-11T11:04:14.133Z,24.4286
2022-12-11T11:05:14.165Z,34.5
2022-12-11T11:06:14.192Z,26.6429
2022-12-11T11:07:14.229Z,20.2143
2022-12-11T11:08:14.363Z,24.8571
2022-12-11T11:09:14.283Z,28.4286
2022-12-11T11:10:14.323Z,21.3571
2022-12-11T11:11:14.353Z,20.2143
2022-12-11T11:12:14.370Z,27.2143
2022-12-11T11:13:14.409Z,18
2022-12-11T11:14:14.447Z,13.4286
2022-12-11T11:15:14.513Z,13
2022-12-11T11:16:14.541Z,12.3571
2022-12-11T11:17:14.546Z,12
2022-12-11T11:18:14.605Z,12.7143
2022-12-11T11:19:14.605Z,14.6429
2022-12-11T11:20:14.720Z,18.2143
2022-12-11T11:21:14.654Z,27.5
2022-12-11T11:22:14.692Z,22.4286
2022-12-11T11:23:14.721Z,23.4286
2022-12-11T11:24:14.759Z,16.2143
2022-12-11T11:25:14.794Z,14.2143
2022-12-11T11:26:14.808Z,13.7143
2022-12-11T11:27:14.859Z,14
2022-12-11T11:28:14.866Z,14.5
2022-12-11T11:29:14.899Z,13.4286
2022-12-11T11:30:14.927Z,12.8571
2022-12-11T11:31:14.991Z,12.9286
2022-12-11T11:32:15.003Z,13.9286
2022-12-11T11:33:15.038Z,14.4286
2022-12-11T11:34:15.076Z,13.5
2022-12-11T11:35:15.107Z,26.8571
2022-12-11T11:36:15.131Z,27.3571
2022-12-11T11:37:15.176Z,18.4286
2022-12-11T11:38:15.199Z,16.2143
2022-12-11T11:39:15.227Z,13.7143
2022-12-11T11:40:15.263Z,12.8571
2022-12-11T11:41:15.478Z,12.3571
2022-12-11T11:42:15.338Z,14.5
2022-12-11T11:43:15.364Z,14.4286
2022-12-11T11:44:15.395Z,13.3571
2022-12-11T11:45:15.425Z,17.3571
2022-12-11T11:46:15.508Z,13.7143
2022-12-11T11:47:15.490Z,12
2022-12-11T11:48:15.516Z,12.5
2022-12-11T11:49:15.552Z,12.6429
2022-12-11T11:50:15.584Z,14.9286
2022-12-11T11:51:15.619Z,13.6429
2022-12-11T11:52:15.645Z,18.1429
2022-12-11T11:53:15.678Z,36.3571
2022-12-11T11:54:15.716Z,27.1429
2022-12-11T11:55:21.488Z,31.6429
2022-12-11T11:56:15.776Z,42.3571
2022-12-11T11:57:15.812Z,39.5
2022-12-11T11:58:15.848Z,38.1429
2022-12-11T11:59:15.898Z,35.4286
2022-12-11T12:00:15.915Z,59.8571
2022-12-11T12:01:15.958Z,43.1429
2022-12-11T12:02:15.993Z,41.9286
2022-12-11T12:03:16.024Z,33.8571
2022-12-11T12:04:16.058Z,36.2143
2022-12-11T12:05:16.084Z,35.3571
2022-12-11T12:06:16.113Z,27.6429
2022-12-11T12:07:16.148Z,32.2143
2022-12-11T12:08:16.233Z,37.8571
2022-12-11T12:09:16.234Z,41.9286
2022-12-11T12:10:16.280Z,38.7143
2022-12-11T12:11:16.287Z,42.2143
2022-12-11T12:12:22.750Z,46.3571
2022-12-11T12:13:44.749Z,39.3571
2022-12-11T12:14:43.617Z,24
2022-12-11T12:15:16.410Z,22.7143
2022-12-11T12:16:44.150Z,15
2022-12-11T12:17:16.526Z,13.7143
2022-12-11T12:18:16.517Z,14.8571
2022-12-11T12:19:16.549Z,22.5
2022-12-11T12:20:16.581Z,17.3571
2022-12-11T12:21:16.611Z,14.1429
2022-12-11T12:22:16.641Z,13.1429
2022-12-11T12:23:16.675Z,12.7143
2022-12-11T12:24:16.690Z,12.7143